メインページ
METAR-TAF:

METAR-TAF

空港 :

マタベリ国際空港

イースター島, チリ

緯度: 27-09S, 経度: 109-25W, 海抜: 51m

現時点の気象観測

当レポートは20分前の20:00(UTC)に作成
変向風 7kt
気温 22°C
湿度 73%
気圧 1022 hPa
視程10km以上
高度2000ftの雲は散在している
高度3000ftの千切れ雲あり

METAR: SCIP 162000Z VRB07KT 9999 SCT020 BKN030 22/17 Q1022 NOSIG

時間: 15:20 (20:20 UTC)

予報

当レポートは3時間43分前の16:37(UTC)に作成
予報は16日の 18時(UTC)から 17日の 18時(UTC)まで有効
南東の風 8kt
視程10km以上
高度2000ftの雲は散在している
高度5000ftの千切れ雲あり
確率 40% :
16日の 18時(UTC)から 16日の 23時(UTC)まで一時的に
東/北東の風 13kt
視程: 6000m
高度1500ftの千切れ雲あり
高度4000ftの曇り
弱いにわか雨
17日の 00時(UTC)から 17日の 02時(UTC)まで徐々に
の風 5kt
高度2500ftの雲は散在している
17日の 11時(UTC)から 17日の 15時(UTC)まで一時的に
東/北東の風 13kt
視程: 6000m
高度1500ftの千切れ雲あり
弱いにわか雨
17日の 16時(UTC)から 17日の 18時(UTC)まで徐々に
北/北東の風 5kt

TAF: SCIP 161637Z 1618/1718 13008KT 9999 SCT020 BKN050 TX23/1619Z TN17/1712Z PROB40 TEMPO 1618/1623 06013KT 6000 -SHRA BKN015 OVC040 BECMG 1700/1702 09005KT SCT025 TEMPO 1711/1715 06013KT 6000 -SHRA BKN015 BECMG 1716/1718 03005KT

4,000以上の空港の気象観測と天気予報(METAR報とTAF報)

利用可能な観測所は地図上に黄色い丸と赤い丸で示す。

丸の上にカーソルを重ねると観測所名を参照できる。

次にクリックすると気象観測と天気予報を参照できる。

マップの切り替え:黒色「×」印の緑ボタンをクリックして拡大、「-」印の緑ボタンをクリックして縮小、緑色の三角印をクリックして隣りの地図に切り替え


METAR-TAF: